sensor_id;sensor_type;location;lat;lon;timestamp;P1;durP1;ratioP1;P2;durP2;ratioP2
23280;SDS011;11809;56.390;-3.266;2023-02-19T00:01:43;1.98;;;0.50;;
23280;SDS011;11809;56.390;-3.266;2023-02-19T00:04:13;1.40;;;0.40;;
23280;SDS011;11809;56.390;-3.266;2023-02-19T00:06:42;0.25;;;0.25;;
23280;SDS011;11809;56.390;-3.266;2023-02-19T00:09:11;0.60;;;0.30;;
23280;SDS011;11809;56.390;-3.266;2023-02-19T00:11:39;0.52;;;0.30;;
23280;SDS011;11809;56.390;-3.266;2023-02-19T00:14:07;0.32;;;0.32;;
23280;SDS011;11809;56.390;-3.266;2023-02-19T00:16:35;0.50;;;0.30;;
23280;SDS011;11809;56.390;-3.266;2023-02-19T00:19:05;0.45;;;0.40;;
23280;SDS011;11809;56.390;-3.266;2023-02-19T00:21:33;1.67;;;0.40;;
23280;SDS011;11809;56.390;-3.266;2023-02-19T00:24:01;0.50;;;0.40;;
23280;SDS011;11809;56.390;-3.266;2023-02-19T00:26:31;0.40;;;0.40;;
23280;SDS011;11809;56.390;-3.266;2023-02-19T00:28:58;0.60;;;0.40;;
23280;SDS011;11809;56.390;-3.266;2023-02-19T00:31:30;2.45;;;0.40;;
23280;SDS011;11809;56.390;-3.266;2023-02-19T00:34:00;0.57;;;0.52;;
23280;SDS011;11809;56.390;-3.266;2023-02-19T00:36:29;2.63;;;0.40;;
23280;SDS011;11809;56.390;-3.266;2023-02-19T00:38:57;0.73;;;0.30;;
23280;SDS011;11809;56.390;-3.266;2023-02-19T00:41:24;0.30;;;0.30;;
23280;SDS011;11809;56.390;-3.266;2023-02-19T00:43:52;0.50;;;0.40;;
23280;SDS011;11809;56.390;-3.266;2023-02-19T00:49:01;0.40;;;0.40;;
23280;SDS011;11809;56.390;-3.266;2023-02-19T00:51:30;0.20;;;0.20;;
23280;SDS011;11809;56.390;-3.266;2023-02-19T00:53:58;0.55;;;0.30;;
23280;SDS011;11809;56.390;-3.266;2023-02-19T00:56:26;0.30;;;0.30;;
23280;SDS011;11809;56.390;-3.266;2023-02-19T00:58:53;0.30;;;0.30;;
23280;SDS011;11809;56.390;-3.266;2023-02-19T01:01:20;2.40;;;0.55;;
23280;SDS011;11809;56.390;-3.266;2023-02-19T01:03:48;0.55;;;0.25;;
23280;SDS011;11809;56.390;-3.266;2023-02-19T01:06:16;0.40;;;0.30;;
23280;SDS011;11809;56.390;-3.266;2023-02-19T01:08:44;1.15;;;0.30;;
23280;SDS011;11809;56.390;-3.266;2023-02-19T01:11:11;0.35;;;0.25;;
23280;SDS011;11809;56.390;-3.266;2023-02-19T01:13:39;0.38;;;0.20;;
23280;SDS011;11809;56.390;-3.266;2023-02-19T01:16:08;0.40;;;0.40;;
23280;SDS011;11809;56.390;-3.266;2023-02-19T01:18:41;2.00;;;0.40;;
23280;SDS011;11809;56.390;-3.266;2023-02-19T01:21:27;0.40;;;0.40;;
23280;SDS011;11809;56.390;-3.266;2023-02-19T01:23:55;0.95;;;0.38;;
23280;SDS011;11809;56.390;-3.266;2023-02-19T01:26:24;1.55;;;0.30;;
23280;SDS011;11809;56.390;-3.266;2023-02-19T01:28:55;0.40;;;0.40;;
23280;SDS011;11809;56.390;-3.266;2023-02-19T01:31:23;0.35;;;0.35;;
23280;SDS011;11809;56.390;-3.266;2023-02-19T01:34:00;1.75;;;0.35;;
23280;SDS011;11809;56.390;-3.266;2023-02-19T01:36:29;0.40;;;0.30;;
23280;SDS011;11809;56.390;-3.266;2023-02-19T01:38:59;1.98;;;0.40;;
23280;SDS011;11809;56.390;-3.266;2023-02-19T01:41:30;0.35;;;0.30;;
23280;SDS011;11809;56.390;-3.266;2023-02-19T01:44:01;0.32;;;0.32;;
23280;SDS011;11809;56.390;-3.266;2023-02-19T01:46:38;0.40;;;0.40;;
23280;SDS011;11809;56.390;-3.266;2023-02-19T01:49:13;0.40;;;0.40;;
23280;SDS011;11809;56.390;-3.266;2023-02-19T01:51:46;0.40;;;0.40;;
23280;SDS011;11809;56.390;-3.266;2023-02-19T01:54:20;1.20;;;0.47;;
23280;SDS011;11809;56.390;-3.266;2023-02-19T01:56:50;0.40;;;0.40;;
23280;SDS011;11809;56.390;-3.266;2023-02-19T01:59:17;0.75;;;0.40;;
23280;SDS011;11809;56.390;-3.266;2023-02-19T02:01:45;0.80;;;0.50;;
23280;SDS011;11809;56.390;-3.266;2023-02-19T02:04:12;2.15;;;0.55;;
23280;SDS011;11809;56.390;-3.266;2023-02-19T02:06:48;4.75;;;0.50;;
23280;SDS011;11809;56.390;-3.266;2023-02-19T02:09:18;2.42;;;0.65;;
23280;SDS011;11809;56.390;-3.266;2023-02-19T02:12:05;1.05;;;0.60;;
23280;SDS011;11809;56.390;-3.266;2023-02-19T02:14:33;0.40;;;0.40;;
23280;SDS011;11809;56.390;-3.266;2023-02-19T02:22:18;0.73;;;0.50;;
23280;SDS011;11809;56.390;-3.266;2023-02-19T02:30:42;0.68;;;0.32;;
23280;SDS011;11809;56.390;-3.266;2023-02-19T02:33:29;0.70;;;0.52;;
23280;SDS011;11809;56.390;-3.266;2023-02-19T02:36:09;1.85;;;0.70;;
23280;SDS011;11809;56.390;-3.266;2023-02-19T02:38:43;0.40;;;0.40;;
23280;SDS011;11809;56.390;-3.266;2023-02-19T02:41:12;0.77;;;0.52;;
23280;SDS011;11809;56.390;-3.266;2023-02-19T02:43:41;0.80;;;0.43;;
23280;SDS011;11809;56.390;-3.266;2023-02-19T02:46:09;0.50;;;0.50;;
23280;SDS011;11809;56.390;-3.266;2023-02-19T02:48:39;0.40;;;0.40;;
23280;SDS011;11809;56.390;-3.266;2023-02-19T02:51:18;0.40;;;0.40;;
23280;SDS011;11809;56.390;-3.266;2023-02-19T02:53:51;0.52;;;0.52;;
23280;SDS011;11809;56.390;-3.266;2023-02-19T02:56:38;2.15;;;0.40;;
23280;SDS011;11809;56.390;-3.266;2023-02-19T02:59:07;0.40;;;0.40;;
23280;SDS011;11809;56.390;-3.266;2023-02-19T03:07:02;0.32;;;0.30;;
23280;SDS011;11809;56.390;-3.266;2023-02-19T03:09:36;1.33;;;0.50;;
23280;SDS011;11809;56.390;-3.266;2023-02-19T03:12:11;0.40;;;0.40;;
23280;SDS011;11809;56.390;-3.266;2023-02-19T03:15:00;0.45;;;0.35;;
23280;SDS011;11809;56.390;-3.266;2023-02-19T03:17:52;0.40;;;0.40;;
23280;SDS011;11809;56.390;-3.266;2023-02-19T03:20:43;1.45;;;0.40;;
23280;SDS011;11809;56.390;-3.266;2023-02-19T03:23:13;0.43;;;0.43;;
23280;SDS011;11809;56.390;-3.266;2023-02-19T03:25:43;0.50;;;0.50;;
23280;SDS011;11809;56.390;-3.266;2023-02-19T03:28:31;0.93;;;0.40;;
23280;SDS011;11809;56.390;-3.266;2023-02-19T03:31:21;0.30;;;0.30;;
23280;SDS011;11809;56.390;-3.266;2023-02-19T03:33:52;0.65;;;0.40;;
23280;SDS011;11809;56.390;-3.266;2023-02-19T03:36:22;1.52;;;0.32;;
23280;SDS011;11809;56.390;-3.266;2023-02-19T03:39:03;0.32;;;0.32;;
23280;SDS011;11809;56.390;-3.266;2023-02-19T03:46:53;1.67;;;0.40;;
23280;SDS011;11809;56.390;-3.266;2023-02-19T03:49:40;0.30;;;0.30;;
23280;SDS011;11809;56.390;-3.266;2023-02-19T03:57:20;0.40;;;0.40;;
23280;SDS011;11809;56.390;-3.266;2023-02-19T04:00:20;0.40;;;0.40;;
23280;SDS011;11809;56.390;-3.266;2023-02-19T04:07:57;2.15;;;0.30;;
23280;SDS011;11809;56.390;-3.266;2023-02-19T04:10:29;0.50;;;0.30;;
23280;SDS011;11809;56.390;-3.266;2023-02-19T04:13:01;0.28;;;0.28;;
23280;SDS011;11809;56.390;-3.266;2023-02-19T04:15:35;0.20;;;0.20;;
23280;SDS011;11809;56.390;-3.266;2023-02-19T04:18:09;0.63;;;0.38;;
23280;SDS011;11809;56.390;-3.266;2023-02-19T04:20:43;0.20;;;0.20;;
23280;SDS011;11809;56.390;-3.266;2023-02-19T04:23:11;0.30;;;0.30;;
23280;SDS011;11809;56.390;-3.266;2023-02-19T04:25:40;0.30;;;0.30;;
23280;SDS011;11809;56.390;-3.266;2023-02-19T04:28:11;0.25;;;0.20;;
23280;SDS011;11809;56.390;-3.266;2023-02-19T04:30:39;0.30;;;0.30;;
23280;SDS011;11809;56.390;-3.266;2023-02-19T04:33:06;2.03;;;0.20;;
23280;SDS011;11809;56.390;-3.266;2023-02-19T04:35:33;0.20;;;0.20;;
23280;SDS011;11809;56.390;-3.266;2023-02-19T04:38:00;0.20;;;0.20;;
23280;SDS011;11809;56.390;-3.266;2023-02-19T04:40:27;1.08;;;0.30;;
23280;SDS011;11809;56.390;-3.266;2023-02-19T04:42:54;0.30;;;0.30;;
23280;SDS011;11809;56.390;-3.266;2023-02-19T04:45:21;0.20;;;0.20;;
23280;SDS011;11809;56.390;-3.266;2023-02-19T04:47:48;1.50;;;0.30;;
23280;SDS011;11809;56.390;-3.266;2023-02-19T04:50:15;0.20;;;0.20;;
23280;SDS011;11809;56.390;-3.266;2023-02-19T04:52:42;0.22;;;0.22;;
23280;SDS011;11809;56.390;-3.266;2023-02-19T04:55:09;0.93;;;0.30;;
23280;SDS011;11809;56.390;-3.266;2023-02-19T04:57:36;0.20;;;0.20;;
23280;SDS011;11809;56.390;-3.266;2023-02-19T05:00:03;0.20;;;0.20;;
23280;SDS011;11809;56.390;-3.266;2023-02-19T05:02:30;0.20;;;0.20;;
23280;SDS011;11809;56.390;-3.266;2023-02-19T05:04:57;0.20;;;0.15;;
23280;SDS011;11809;56.390;-3.266;2023-02-19T05:07:24;0.20;;;0.20;;
23280;SDS011;11809;56.390;-3.266;2023-02-19T05:09:51;0.32;;;0.30;;
23280;SDS011;11809;56.390;-3.266;2023-02-19T05:12:17;0.10;;;0.10;;
23280;SDS011;11809;56.390;-3.266;2023-02-19T05:14:44;0.10;;;0.10;;
23280;SDS011;11809;56.390;-3.266;2023-02-19T05:17:11;0.40;;;0.30;;
23280;SDS011;11809;56.390;-3.266;2023-02-19T05:19:38;0.15;;;0.15;;
23280;SDS011;11809;56.390;-3.266;2023-02-19T05:22:05;0.40;;;0.20;;
23280;SDS011;11809;56.390;-3.266;2023-02-19T05:24:32;0.22;;;0.20;;
23280;SDS011;11809;56.390;-3.266;2023-02-19T05:26:59;0.20;;;0.20;;
23280;SDS011;11809;56.390;-3.266;2023-02-19T05:29:26;0.20;;;0.20;;
23280;SDS011;11809;56.390;-3.266;2023-02-19T05:31:52;0.20;;;0.20;;
23280;SDS011;11809;56.390;-3.266;2023-02-19T05:34:19;0.13;;;0.13;;
23280;SDS011;11809;56.390;-3.266;2023-02-19T05:36:46;0.20;;;0.20;;
23280;SDS011;11809;56.390;-3.266;2023-02-19T05:39:13;0.60;;;0.17;;
23280;SDS011;11809;56.390;-3.266;2023-02-19T05:41:40;0.20;;;0.20;;
23280;SDS011;11809;56.390;-3.266;2023-02-19T05:44:08;0.15;;;0.15;;
23280;SDS011;11809;56.390;-3.266;2023-02-19T05:46:36;1.23;;;0.20;;
23280;SDS011;11809;56.390;-3.266;2023-02-19T05:49:03;0.20;;;0.20;;
23280;SDS011;11809;56.390;-3.266;2023-02-19T05:51:30;1.13;;;0.20;;
23280;SDS011;11809;56.390;-3.266;2023-02-19T05:53:57;0.20;;;0.20;;
23280;SDS011;11809;56.390;-3.266;2023-02-19T05:56:34;0.10;;;0.10;;
23280;SDS011;11809;56.390;-3.266;2023-02-19T05:59:04;0.20;;;0.20;;
23280;SDS011;11809;56.390;-3.266;2023-02-19T06:01:34;0.20;;;0.20;;
23280;SDS011;11809;56.390;-3.266;2023-02-19T06:04:01;0.57;;;0.22;;
23280;SDS011;11809;56.390;-3.266;2023-02-19T06:06:28;0.17;;;0.10;;
23280;SDS011;11809;56.390;-3.266;2023-02-19T06:08:55;0.10;;;0.10;;
23280;SDS011;11809;56.390;-3.266;2023-02-19T06:11:22;0.17;;;0.17;;
23280;SDS011;11809;56.390;-3.266;2023-02-19T06:13:49;0.28;;;0.20;;
23280;SDS011;11809;56.390;-3.266;2023-02-19T06:16:17;0.20;;;0.20;;
23280;SDS011;11809;56.390;-3.266;2023-02-19T06:18:44;0.35;;;0.20;;
23280;SDS011;11809;56.390;-3.266;2023-02-19T06:21:11;0.63;;;0.20;;
23280;SDS011;11809;56.390;-3.266;2023-02-19T06:23:39;1.17;;;0.20;;
23280;SDS011;11809;56.390;-3.266;2023-02-19T06:26:08;0.22;;;0.20;;
23280;SDS011;11809;56.390;-3.266;2023-02-19T06:28:41;0.20;;;0.20;;
23280;SDS011;11809;56.390;-3.266;2023-02-19T06:31:09;1.00;;;0.20;;
23280;SDS011;11809;56.390;-3.266;2023-02-19T06:33:37;0.65;;;0.20;;
23280;SDS011;11809;56.390;-3.266;2023-02-19T06:36:06;0.10;;;0.10;;
23280;SDS011;11809;56.390;-3.266;2023-02-19T06:38:37;0.43;;;0.38;;
23280;SDS011;11809;56.390;-3.266;2023-02-19T06:41:05;0.52;;;0.20;;
23280;SDS011;11809;56.390;-3.266;2023-02-19T06:43:33;0.38;;;0.28;;
23280;SDS011;11809;56.390;-3.266;2023-02-19T06:46:01;0.10;;;0.10;;
23280;SDS011;11809;56.390;-3.266;2023-02-19T06:48:29;0.10;;;0.10;;
23280;SDS011;11809;56.390;-3.266;2023-02-19T06:50:57;0.20;;;0.20;;
23280;SDS011;11809;56.390;-3.266;2023-02-19T06:53:24;0.70;;;0.20;;
23280;SDS011;11809;56.390;-3.266;2023-02-19T06:55:59;0.20;;;0.20;;
23280;SDS011;11809;56.390;-3.266;2023-02-19T06:58:28;0.20;;;0.20;;
23280;SDS011;11809;56.390;-3.266;2023-02-19T07:00:55;7.13;;;0.30;;
23280;SDS011;11809;56.390;-3.266;2023-02-19T07:03:22;5.35;;;0.38;;
23280;SDS011;11809;56.390;-3.266;2023-02-19T07:05:49;7.03;;;0.30;;
23280;SDS011;11809;56.390;-3.266;2023-02-19T07:08:16;0.30;;;0.20;;
23280;SDS011;11809;56.390;-3.266;2023-02-19T07:10:43;4.32;;;0.28;;
23280;SDS011;11809;56.390;-3.266;2023-02-19T07:13:11;1.23;;;0.20;;
23280;SDS011;11809;56.390;-3.266;2023-02-19T07:15:37;3.08;;;0.30;;
23280;SDS011;11809;56.390;-3.266;2023-02-19T07:18:04;1.98;;;0.43;;
23280;SDS011;11809;56.390;-3.266;2023-02-19T07:20:35;1.52;;;0.25;;
23280;SDS011;11809;56.390;-3.266;2023-02-19T07:23:03;6.60;;;0.82;;
23280;SDS011;11809;56.390;-3.266;2023-02-19T07:25:30;3.55;;;0.40;;
23280;SDS011;11809;56.390;-3.266;2023-02-19T07:27:57;6.05;;;0.35;;
23280;SDS011;11809;56.390;-3.266;2023-02-19T07:30:24;1.70;;;0.20;;
23280;SDS011;11809;56.390;-3.266;2023-02-19T07:32:51;12.77;;;1.42;;
23280;SDS011;11809;56.390;-3.266;2023-02-19T07:35:18;21.95;;;1.00;;
23280;SDS011;11809;56.390;-3.266;2023-02-19T07:37:45;35.88;;;1.92;;
23280;SDS011;11809;56.390;-3.266;2023-02-19T07:40:12;14.25;;;1.10;;
23280;SDS011;11809;56.390;-3.266;2023-02-19T07:42:38;6.93;;;0.60;;
23280;SDS011;11809;56.390;-3.266;2023-02-19T07:45:05;14.48;;;1.00;;
23280;SDS011;11809;56.390;-3.266;2023-02-19T07:47:32;8.43;;;0.93;;
23280;SDS011;11809;56.390;-3.266;2023-02-19T07:49:59;24.48;;;1.73;;
23280;SDS011;11809;56.390;-3.266;2023-02-19T07:52:26;8.82;;;1.92;;
23280;SDS011;11809;56.390;-3.266;2023-02-19T07:54:56;4.30;;;2.25;;
23280;SDS011;11809;56.390;-3.266;2023-02-19T07:58:14;8.95;;;2.42;;
23280;SDS011;11809;56.390;-3.266;2023-02-19T08:00:42;13.15;;;2.15;;
23280;SDS011;11809;56.390;-3.266;2023-02-19T08:03:09;34.55;;;3.00;;
23280;SDS011;11809;56.390;-3.266;2023-02-19T08:05:38;28.67;;;3.33;;
23280;SDS011;11809;56.390;-3.266;2023-02-19T08:08:12;3.63;;;1.40;;
23280;SDS011;11809;56.390;-3.266;2023-02-19T08:10:40;23.67;;;2.50;;
23280;SDS011;11809;56.390;-3.266;2023-02-19T08:13:27;18.02;;;2.08;;
23280;SDS011;11809;56.390;-3.266;2023-02-19T08:16:08;15.20;;;1.73;;
23280;SDS011;11809;56.390;-3.266;2023-02-19T08:18:47;24.70;;;2.95;;
23280;SDS011;11809;56.390;-3.266;2023-02-19T08:21:14;7.93;;;2.30;;
23280;SDS011;11809;56.390;-3.266;2023-02-19T08:23:43;7.35;;;2.70;;
23280;SDS011;11809;56.390;-3.266;2023-02-19T08:26:11;3.80;;;2.00;;
23280;SDS011;11809;56.390;-3.266;2023-02-19T08:28:39;21.75;;;2.95;;
23280;SDS011;11809;56.390;-3.266;2023-02-19T08:31:06;14.48;;;2.30;;
23280;SDS011;11809;56.390;-3.266;2023-02-19T08:33:36;4.85;;;1.80;;
23280;SDS011;11809;56.390;-3.266;2023-02-19T08:36:04;7.80;;;1.55;;
23280;SDS011;11809;56.390;-3.266;2023-02-19T08:38:33;16.35;;;2.22;;
23280;SDS011;11809;56.390;-3.266;2023-02-19T08:41:06;9.13;;;2.00;;
23280;SDS011;11809;56.390;-3.266;2023-02-19T08:43:35;5.63;;;1.25;;
23280;SDS011;11809;56.390;-3.266;2023-02-19T08:46:02;11.02;;;1.73;;
23280;SDS011;11809;56.390;-3.266;2023-02-19T08:48:30;5.90;;;1.40;;
23280;SDS011;11809;56.390;-3.266;2023-02-19T08:50:58;13.48;;;1.48;;
23280;SDS011;11809;56.390;-3.266;2023-02-19T08:53:30;9.85;;;1.95;;
23280;SDS011;11809;56.390;-3.266;2023-02-19T08:55:58;19.15;;;1.65;;
23280;SDS011;11809;56.390;-3.266;2023-02-19T08:58:29;10.95;;;1.60;;
23280;SDS011;11809;56.390;-3.266;2023-02-19T09:00:58;4.75;;;1.40;;
23280;SDS011;11809;56.390;-3.266;2023-02-19T09:03:28;9.05;;;1.52;;
23280;SDS011;11809;56.390;-3.266;2023-02-19T09:05:55;6.88;;;1.40;;
23280;SDS011;11809;56.390;-3.266;2023-02-19T09:08:22;5.05;;;1.45;;
23280;SDS011;11809;56.390;-3.266;2023-02-19T09:11:01;11.43;;;2.13;;
23280;SDS011;11809;56.390;-3.266;2023-02-19T09:13:30;8.05;;;1.67;;
23280;SDS011;11809;56.390;-3.266;2023-02-19T09:15:57;8.15;;;1.63;;
23280;SDS011;11809;56.390;-3.266;2023-02-19T09:18:24;10.93;;;1.30;;
23280;SDS011;11809;56.390;-3.266;2023-02-19T09:20:51;6.60;;;1.70;;
23280;SDS011;11809;56.390;-3.266;2023-02-19T09:23:18;5.20;;;1.20;;
23280;SDS011;11809;56.390;-3.266;2023-02-19T09:25:45;4.18;;;1.02;;
23280;SDS011;11809;56.390;-3.266;2023-02-19T09:28:12;6.72;;;1.30;;
23280;SDS011;11809;56.390;-3.266;2023-02-19T09:30:39;4.72;;;1.30;;
23280;SDS011;11809;56.390;-3.266;2023-02-19T09:33:06;5.25;;;1.30;;
23280;SDS011;11809;56.390;-3.266;2023-02-19T09:35:33;3.08;;;1.05;;
23280;SDS011;11809;56.390;-3.266;2023-02-19T09:38:04;5.00;;;0.90;;
23280;SDS011;11809;56.390;-3.266;2023-02-19T09:40:34;5.93;;;0.95;;
23280;SDS011;11809;56.390;-3.266;2023-02-19T09:43:05;2.65;;;1.33;;
23280;SDS011;11809;56.390;-3.266;2023-02-19T09:45:38;2.60;;;1.10;;
23280;SDS011;11809;56.390;-3.266;2023-02-19T09:48:06;1.50;;;0.98;;
23280;SDS011;11809;56.390;-3.266;2023-02-19T09:50:36;3.72;;;0.80;;
23280;SDS011;11809;56.390;-3.266;2023-02-19T09:53:40;10.75;;;0.95;;
23280;SDS011;11809;56.390;-3.266;2023-02-19T09:56:06;10.27;;;1.00;;
23280;SDS011;11809;56.390;-3.266;2023-02-19T09:58:34;5.03;;;0.73;;
23280;SDS011;11809;56.390;-3.266;2023-02-19T10:01:09;3.03;;;0.80;;
23280;SDS011;11809;56.390;-3.266;2023-02-19T10:03:38;2.42;;;0.60;;
23280;SDS011;11809;56.390;-3.266;2023-02-19T10:06:30;2.40;;;0.50;;
23280;SDS011;11809;56.390;-3.266;2023-02-19T10:09:10;3.45;;;0.73;;
23280;SDS011;11809;56.390;-3.266;2023-02-19T10:11:45;2.05;;;0.70;;
23280;SDS011;11809;56.390;-3.266;2023-02-19T10:14:16;2.42;;;0.80;;
23280;SDS011;11809;56.390;-3.266;2023-02-19T10:16:48;0.50;;;0.50;;
23280;SDS011;11809;56.390;-3.266;2023-02-19T10:19:15;3.45;;;0.80;;
23280;SDS011;11809;56.390;-3.266;2023-02-19T10:21:43;0.70;;;0.43;;
23280;SDS011;11809;56.390;-3.266;2023-02-19T10:24:21;3.58;;;0.50;;
23280;SDS011;11809;56.390;-3.266;2023-02-19T10:26:52;5.70;;;0.80;;
23280;SDS011;11809;56.390;-3.266;2023-02-19T10:29:20;0.65;;;0.40;;
23280;SDS011;11809;56.390;-3.266;2023-02-19T10:31:47;2.40;;;0.40;;
23280;SDS011;11809;56.390;-3.266;2023-02-19T10:34:19;2.17;;;0.70;;
23280;SDS011;11809;56.390;-3.266;2023-02-19T10:36:49;2.05;;;0.50;;
23280;SDS011;11809;56.390;-3.266;2023-02-19T10:41:48;1.20;;;0.45;;
23280;SDS011;11809;56.390;-3.266;2023-02-19T10:44:23;0.38;;;0.30;;
23280;SDS011;11809;56.390;-3.266;2023-02-19T10:46:54;3.30;;;0.93;;
23280;SDS011;11809;56.390;-3.266;2023-02-19T10:49:25;1.75;;;0.30;;
23280;SDS011;11809;56.390;-3.266;2023-02-19T10:52:02;27.73;;;1.40;;
23280;SDS011;11809;56.390;-3.266;2023-02-19T10:54:48;5.50;;;0.55;;
23280;SDS011;11809;56.390;-3.266;2023-02-19T10:57:28;2.92;;;0.40;;
23280;SDS011;11809;56.390;-3.266;2023-02-19T11:00:02;1.98;;;0.30;;
23280;SDS011;11809;56.390;-3.266;2023-02-19T11:02:49;4.28;;;0.70;;
23280;SDS011;11809;56.390;-3.266;2023-02-19T11:05:58;29.55;;;1.63;;
23280;SDS011;11809;56.390;-3.266;2023-02-19T11:08:27;17.98;;;1.63;;
23280;SDS011;11809;56.390;-3.266;2023-02-19T11:10:56;57.28;;;6.57;;
23280;SDS011;11809;56.390;-3.266;2023-02-19T11:13:27;17.63;;;1.42;;
23280;SDS011;11809;56.390;-3.266;2023-02-19T11:15:57;15.98;;;1.20;;
23280;SDS011;11809;56.390;-3.266;2023-02-19T11:18:26;29.75;;;1.65;;
23280;SDS011;11809;56.390;-3.266;2023-02-19T11:20:57;10.15;;;1.27;;
23280;SDS011;11809;56.390;-3.266;2023-02-19T11:23:33;4.80;;;0.90;;
23280;SDS011;11809;56.390;-3.266;2023-02-19T11:26:04;9.60;;;0.90;;
23280;SDS011;11809;56.390;-3.266;2023-02-19T11:28:41;6.38;;;0.75;;
23280;SDS011;11809;56.390;-3.266;2023-02-19T11:33:42;5.93;;;1.20;;
23280;SDS011;11809;56.390;-3.266;2023-02-19T11:38:41;5.55;;;1.05;;
23280;SDS011;11809;56.390;-3.266;2023-02-19T11:44:11;12.38;;;0.98;;
23280;SDS011;11809;56.390;-3.266;2023-02-19T11:55:34;15.35;;;1.60;;
23280;SDS011;11809;56.390;-3.266;2023-02-19T12:06:32;5.25;;;1.65;;
23280;SDS011;11809;56.390;-3.266;2023-02-19T12:22:42;9.15;;;1.40;;
23280;SDS011;11809;56.390;-3.266;2023-02-19T12:25:24;10.95;;;1.50;;
23280;SDS011;11809;56.390;-3.266;2023-02-19T12:28:15;4.32;;;1.02;;
23280;SDS011;11809;56.390;-3.266;2023-02-19T12:44:33;1.45;;;0.63;;
23280;SDS011;11809;56.390;-3.266;2023-02-19T12:47:09;2.17;;;0.65;;
23280;SDS011;11809;56.390;-3.266;2023-02-19T12:49:54;7.28;;;1.10;;
23280;SDS011;11809;56.390;-3.266;2023-02-19T12:52:25;3.65;;;0.55;;
23280;SDS011;11809;56.390;-3.266;2023-02-19T12:55:01;12.95;;;0.93;;
23280;SDS011;11809;56.390;-3.266;2023-02-19T12:57:47;11.98;;;0.85;;
23280;SDS011;11809;56.390;-3.266;2023-02-19T13:08:18;10.10;;;1.98;;
23280;SDS011;11809;56.390;-3.266;2023-02-19T13:11:31;8.13;;;1.50;;
23280;SDS011;11809;56.390;-3.266;2023-02-19T13:14:11;6.75;;;1.42;;
23280;SDS011;11809;56.390;-3.266;2023-02-19T13:16:41;9.95;;;1.40;;
23280;SDS011;11809;56.390;-3.266;2023-02-19T13:19:15;10.38;;;1.30;;
23280;SDS011;11809;56.390;-3.266;2023-02-19T13:21:42;8.85;;;1.10;;
23280;SDS011;11809;56.390;-3.266;2023-02-19T13:24:34;4.97;;;1.20;;
23280;SDS011;11809;56.390;-3.266;2023-02-19T13:29:57;7.18;;;0.80;;
23280;SDS011;11809;56.390;-3.266;2023-02-19T13:35:21;2.08;;;0.70;;
23280;SDS011;11809;56.390;-3.266;2023-02-19T13:37:59;3.25;;;0.65;;
23280;SDS011;11809;56.390;-3.266;2023-02-19T13:43:21;7.03;;;0.80;;
23280;SDS011;11809;56.390;-3.266;2023-02-19T13:45:55;4.63;;;0.70;;
23280;SDS011;11809;56.390;-3.266;2023-02-19T13:48:35;1.20;;;0.50;;
23280;SDS011;11809;56.390;-3.266;2023-02-19T14:28:05;22.92;;;2.10;;
23280;SDS011;11809;56.390;-3.266;2023-02-19T14:36:00;9.77;;;1.70;;
23280;SDS011;11809;56.390;-3.266;2023-02-19T14:38:34;10.88;;;1.60;;
23280;SDS011;11809;56.390;-3.266;2023-02-19T14:41:04;32.53;;;2.47;;
23280;SDS011;11809;56.390;-3.266;2023-02-19T14:43:33;17.05;;;1.98;;
23280;SDS011;11809;56.390;-3.266;2023-02-19T14:46:03;10.95;;;1.42;;
23280;SDS011;11809;56.390;-3.266;2023-02-19T14:48:41;10.27;;;1.30;;
23280;SDS011;11809;56.390;-3.266;2023-02-19T14:51:13;5.90;;;1.00;;
23280;SDS011;11809;56.390;-3.266;2023-02-19T14:53:47;3.17;;;0.80;;
23280;SDS011;11809;56.390;-3.266;2023-02-19T14:56:17;17.20;;;1.55;;
23280;SDS011;11809;56.390;-3.266;2023-02-19T14:59:04;8.50;;;1.00;;
23280;SDS011;11809;56.390;-3.266;2023-02-19T15:01:31;3.05;;;0.85;;
23280;SDS011;11809;56.390;-3.266;2023-02-19T15:03:59;6.15;;;0.80;;
23280;SDS011;11809;56.390;-3.266;2023-02-19T15:06:26;12.35;;;0.70;;
23280;SDS011;11809;56.390;-3.266;2023-02-19T15:08:56;7.82;;;0.60;;
23280;SDS011;11809;56.390;-3.266;2023-02-19T15:11:25;4.60;;;0.80;;
23280;SDS011;11809;56.390;-3.266;2023-02-19T15:13:58;4.45;;;0.80;;
23280;SDS011;11809;56.390;-3.266;2023-02-19T15:16:31;13.32;;;1.08;;
23280;SDS011;11809;56.390;-3.266;2023-02-19T15:19:04;10.95;;;0.70;;
23280;SDS011;11809;56.390;-3.266;2023-02-19T15:21:33;6.55;;;0.70;;
23280;SDS011;11809;56.390;-3.266;2023-02-19T15:24:05;38.00;;;2.22;;
23280;SDS011;11809;56.390;-3.266;2023-02-19T15:26:34;12.55;;;1.08;;
23280;SDS011;11809;56.390;-3.266;2023-02-19T15:29:09;9.30;;;0.63;;
23280;SDS011;11809;56.390;-3.266;2023-02-19T15:31:45;19.70;;;1.70;;
23280;SDS011;11809;56.390;-3.266;2023-02-19T15:34:16;10.20;;;0.80;;
23280;SDS011;11809;56.390;-3.266;2023-02-19T15:36:44;8.63;;;0.60;;
23280;SDS011;11809;56.390;-3.266;2023-02-19T15:39:21;28.17;;;1.88;;
23280;SDS011;11809;56.390;-3.266;2023-02-19T15:41:55;10.18;;;0.68;;
23280;SDS011;11809;56.390;-3.266;2023-02-19T15:49:52;28.23;;;1.67;;
23280;SDS011;11809;56.390;-3.266;2023-02-19T15:52:31;27.73;;;1.30;;
23280;SDS011;11809;56.390;-3.266;2023-02-19T15:57:44;12.82;;;0.90;;
23280;SDS011;11809;56.390;-3.266;2023-02-19T16:00:24;40.55;;;2.78;;
23280;SDS011;11809;56.390;-3.266;2023-02-19T16:02:58;25.08;;;1.20;;
23280;SDS011;11809;56.390;-3.266;2023-02-19T16:05:26;18.10;;;0.95;;
23280;SDS011;11809;56.390;-3.266;2023-02-19T16:08:05;6.72;;;0.60;;
23280;SDS011;11809;56.390;-3.266;2023-02-19T16:10:38;15.35;;;0.95;;
23280;SDS011;11809;56.390;-3.266;2023-02-19T16:13:05;15.40;;;1.00;;
23280;SDS011;11809;56.390;-3.266;2023-02-19T16:15:34;16.50;;;1.80;;
23280;SDS011;11809;56.390;-3.266;2023-02-19T16:18:04;12.45;;;0.82;;
23280;SDS011;11809;56.390;-3.266;2023-02-19T16:20:32;15.85;;;1.17;;
23280;SDS011;11809;56.390;-3.266;2023-02-19T16:23:07;8.00;;;0.90;;
23280;SDS011;11809;56.390;-3.266;2023-02-19T16:25:41;6.47;;;0.68;;
23280;SDS011;11809;56.390;-3.266;2023-02-19T16:30:56;10.32;;;0.80;;
23280;SDS011;11809;56.390;-3.266;2023-02-19T16:44:00;3.13;;;0.63;;
23280;SDS011;11809;56.390;-3.266;2023-02-19T16:46:32;4.53;;;0.57;;
23280;SDS011;11809;56.390;-3.266;2023-02-19T16:48:59;12.73;;;1.23;;
23280;SDS011;11809;56.390;-3.266;2023-02-19T16:51:26;4.20;;;0.50;;
23280;SDS011;11809;56.390;-3.266;2023-02-19T16:53:53;6.63;;;0.60;;
23280;SDS011;11809;56.390;-3.266;2023-02-19T16:56:20;14.57;;;0.98;;
23280;SDS011;11809;56.390;-3.266;2023-02-19T16:58:49;9.90;;;1.25;;
23280;SDS011;11809;56.390;-3.266;2023-02-19T17:01:16;9.82;;;0.82;;
23280;SDS011;11809;56.390;-3.266;2023-02-19T17:03:44;5.38;;;0.85;;
23280;SDS011;11809;56.390;-3.266;2023-02-19T17:06:13;32.15;;;1.98;;
23280;SDS011;11809;56.390;-3.266;2023-02-19T17:08:41;7.97;;;0.80;;
23280;SDS011;11809;56.390;-3.266;2023-02-19T17:11:11;6.13;;;0.70;;
23280;SDS011;11809;56.390;-3.266;2023-02-19T17:13:40;46.85;;;1.80;;
23280;SDS011;11809;56.390;-3.266;2023-02-19T17:16:10;13.77;;;1.20;;
23280;SDS011;11809;56.390;-3.266;2023-02-19T17:18:47;9.00;;;0.98;;
23280;SDS011;11809;56.390;-3.266;2023-02-19T17:21:19;12.70;;;1.10;;
23280;SDS011;11809;56.390;-3.266;2023-02-19T17:23:52;13.18;;;0.95;;
23280;SDS011;11809;56.390;-3.266;2023-02-19T17:26:26;19.05;;;1.63;;
23280;SDS011;11809;56.390;-3.266;2023-02-19T17:28:55;16.13;;;1.63;;
23280;SDS011;11809;56.390;-3.266;2023-02-19T17:31:27;7.97;;;1.35;;
23280;SDS011;11809;56.390;-3.266;2023-02-19T17:33:54;10.57;;;1.27;;
23280;SDS011;11809;56.390;-3.266;2023-02-19T17:36:23;20.73;;;1.50;;
23280;SDS011;11809;56.390;-3.266;2023-02-19T17:38:58;8.40;;;1.40;;
23280;SDS011;11809;56.390;-3.266;2023-02-19T17:41:26;10.52;;;1.20;;
23280;SDS011;11809;56.390;-3.266;2023-02-19T17:43:54;8.65;;;0.95;;
23280;SDS011;11809;56.390;-3.266;2023-02-19T17:46:22;6.95;;;1.00;;